Time;durP1;ratioP1;P1;durP2;ratioP2;P2;SDS_P1;SDS_P2;PMS_P1;PMS_P2;Temp;Humidity;BMP_temperature;BMP_pressure;BME280_temperature;BME280_humidity;BME280_pressure;Samples;Min_cycle;Max_cycle;Signal;HPM_P1;HPM_P2
2022/03/31 00:03:12;;;;;;;;;;;;;;;;;;;;;
2022/03/31 00:09:10;;;;;;;2.23;2.07;;;16.10;47.30;;;;;;4961130;28;20451;-84
2022/03/31 00:11:58;;;;;;;2.90;1.83;;;16.10;47.30;;;;;;4961312;28;20478;-84
2022/03/31 00:14:58;;;;;;;2.77;1.70;;;16.10;47.40;;;;;;4961303;28;20914;-84
2022/03/31 00:18:09;;;;;;;2.70;1.63;;;16.10;47.30;;;;;;4958829;28;20505;-85
2022/03/31 00:20:50;;;;;;;1.97;1.87;;;16.10;47.40;;;;;;4948433;28;20565;-84
2022/03/31 00:23:25;;;;;;;1.97;1.87;;;16.10;47.40;;;;;;4967633;28;20483;-83
2022/03/31 00:26:13;;;;;;;3.73;1.97;;;16.00;47.20;;;;;;4972954;28;20498;-83
2022/03/31 00:28:50;;;;;;;2.53;1.97;;;16.10;47.40;;;;;;4968842;28;20522;-84
2022/03/31 00:31:36;;;;;;;2.90;1.53;;;16.00;47.30;;;;;;4962435;28;20463;-84
2022/03/31 00:34:27;;;;;;;2.90;1.80;;;16.00;47.40;;;;;;4969634;28;20427;-83
2022/03/31 00:37:21;;;;;;;1.77;1.67;;;16.10;47.50;;;;;;4971909;28;20467;-83
2022/03/31 00:40:08;;;;;;;2.73;1.70;;;16.00;47.40;;;;;;4976815;28;20471;-83
2022/03/31 00:43:08;;;;;;;1.97;1.87;;;16.00;47.60;;;;;;4947771;29;20851;-84
2022/03/31 00:45:48;;;;;;;3.13;1.70;;;16.00;47.60;;;;;;4944184;29;20454;-85
2022/03/31 00:49:08;;;;;;;1.90;1.80;;;15.90;47.40;;;;;;4943358;29;20452;-84
2022/03/31 00:52:20;;;;;;;1.90;1.80;;;16.00;47.60;;;;;;4934312;29;20447;-84
2022/03/31 00:59:05;;;;;;;2.13;1.77;;;15.90;47.50;;;;;;4904164;29;20437;-84
2022/03/31 01:16:13;;;;;;;2.87;1.93;;;15.90;47.70;;;;;;4843967;29;20448;-85
2022/03/31 01:23:03;;;;;;;;;;;;;;;;;;;;;
2022/03/31 01:26:12;;;;;;;4.53;2.00;;;15.80;48.30;;;;;;4754318;30;20488;-85
2022/03/31 01:29:18;;;;;;;1.97;1.80;;;15.80;47.80;;;;;;4738733;30;20533;-85
2022/03/31 01:41:45;;;;;;;2.23;2.03;;;15.70;47.70;;;;;;4751564;30;20499;-85
2022/03/31 03:04:45;;;;;;;1.90;1.80;;;15.50;48.00;;;;;;4861896;29;20458;-84
2022/03/31 03:07:52;;;;;;;2.70;1.80;;;15.50;48.00;;;;;;4831693;29;20527;-82
2022/03/31 03:11:11;;;;;;;2.23;1.97;;;15.50;48.00;;;;;;4885031;29;20442;-84
2022/03/31 03:21:01;;;;;;;2.00;1.90;;;15.40;48.10;;;;;;4829643;29;20486;-84
2022/03/31 03:24:41;;;;;;;2.03;1.90;;;15.40;48.00;;;;;;4926137;29;20433;-84
2022/03/31 03:27:19;;;;;;;2.60;2.03;;;15.40;48.00;;;;;;4950698;23;20519;-84
2022/03/31 03:30:30;;;;;;;1.80;1.70;;;15.40;47.80;;;;;;4947004;28;20438;-85
2022/03/31 03:33:38;;;;;;;3.57;1.83;;;15.40;48.00;;;;;;4916526;29;20512;-84
2022/03/31 03:39:28;;;;;;;2.03;1.73;;;15.40;48.10;;;;;;4962541;28;20439;-84
2022/03/31 03:42:54;;;;;;;2.00;1.90;;;15.40;48.00;;;;;;4962699;28;20478;-84
2022/03/31 04:18:04;;;;;;;2.20;2.10;;;15.20;48.20;;;;;;4919233;29;20456;-84
2022/03/31 04:27:58;;;;;;;1.60;1.50;;;15.20;48.20;;;;;;4958894;28;20566;-84
2022/03/31 04:34:00;;;;;;;1.70;1.60;;;15.10;48.10;;;;;;4966348;28;20537;-83
2022/03/31 04:37:00;;;;;;;2.23;1.87;;;15.10;48.10;;;;;;4947733;28;20463;-84
2022/03/31 04:39:44;;;;;;;1.57;1.47;;;15.00;48.20;;;;;;4965195;28;20447;-85
2022/03/31 04:42:35;;;;;;;1.80;1.70;;;15.10;48.20;;;;;;4965524;28;20487;-84
2022/03/31 04:52:55;;;;;;;2.17;1.97;;;15.00;48.20;;;;;;4963265;28;20435;-84
2022/03/31 04:55:40;;;;;;;2.40;2.17;;;15.00;48.20;;;;;;4964748;28;20459;-84
2022/03/31 05:01:38;;;;;;;1.93;1.83;;;14.90;48.30;;;;;;4961846;28;20478;-84
2022/03/31 05:04:40;;;;;;;1.67;1.57;;;14.90;48.40;;;;;;4959558;28;20447;-85
2022/03/31 05:07:27;;;;;;;2.07;1.97;;;14.90;48.40;;;;;;4968537;28;20482;-84
2022/03/31 05:10:07;;;;;;;2.07;1.93;;;14.90;48.50;;;;;;4966145;28;20974;-85
2022/03/31 05:20:09;;;;;;;1.80;1.63;;;14.90;49.00;;;;;;4833884;29;20451;-84
2022/03/31 05:52:50;;;;;;;2.10;1.90;;;14.80;48.50;;;;;;4835182;29;20475;-86
2022/03/31 06:03:28;;;;;;;2.90;1.80;;;14.70;48.60;;;;;;4849539;29;20483;-85
2022/03/31 06:06:24;;;;;;;1.80;1.70;;;14.70;48.50;;;;;;4895248;29;20461;-86
2022/03/31 06:09:09;;;;;;;1.90;1.80;;;14.70;48.70;;;;;;4894746;29;20452;-86
2022/03/31 06:11:50;;;;;;;4.87;1.70;;;14.70;48.60;;;;;;4895231;29;20450;-85
2022/03/31 06:14:34;;;;;;;1.93;1.83;;;14.70;48.60;;;;;;4908700;29;20459;-85
2022/03/31 06:17:13;;;;;;;1.93;1.70;;;14.70;48.60;;;;;;4940361;29;20480;-85
2022/03/31 06:19:56;;;;;;;3.13;1.90;;;14.60;48.70;;;;;;4939795;28;20478;-84
2022/03/31 06:22:29;;;;;;;2.30;2.00;;;14.70;48.70;;;;;;4943476;29;20479;-86
2022/03/31 06:24:58;;;;;;;2.20;1.83;;;14.70;48.50;;;;;;4943509;28;20458;-85
2022/03/31 06:28:05;;;;;;;22.73;2.83;;;14.60;48.60;;;;;;4864158;29;20495;-82
2022/03/31 06:30:34;;;;;;;1.73;1.60;;;14.70;48.80;;;;;;4955268;28;20460;-85
2022/03/31 06:33:04;;;;;;;1.90;1.80;;;14.70;48.70;;;;;;4982462;28;20480;-85
2022/03/31 06:35:34;;;;;;;1.70;1.60;;;14.70;48.70;;;;;;4989457;28;20433;-84
2022/03/31 06:38:26;;;;;;;2.30;2.10;;;14.60;48.80;;;;;;4988318;28;20470;-85
2022/03/31 06:44:21;;;;;;;2.53;1.80;;;14.50;48.90;;;;;;4999312;28;20453;-84
2022/03/31 06:46:51;;;;;;;1.80;1.70;;;14.60;48.90;;;;;;4981667;28;20471;-83
2022/03/31 06:49:34;;;;;;;1.97;1.60;;;14.60;48.80;;;;;;4979616;28;20439;-84
2022/03/31 06:52:27;;;;;;;2.00;1.90;;;14.60;48.90;;;;;;4979839;28;20434;-83
2022/03/31 06:54:59;;;;;;;2.73;2.00;;;14.60;48.90;;;;;;4979567;28;20430;-83
2022/03/31 06:57:33;;;;;;;2.00;1.90;;;14.60;48.90;;;;;;4978904;28;20462;-84
2022/03/31 07:00:08;;;;;;;3.93;1.97;;;14.60;49.00;;;;;;4976177;28;20451;-84
2022/03/31 07:02:36;;;;;;;1.87;1.77;;;14.60;49.00;;;;;;4975903;28;20471;-85
2022/03/31 07:05:17;;;;;;;4.43;1.83;;;14.50;48.90;;;;;;4974215;28;20510;-85
2022/03/31 07:12:13;;;;;;;2.00;1.90;;;14.50;49.10;;;;;;4855073;29;20479;-86
2022/03/31 07:14:52;;;;;;;1.70;1.60;;;14.60;49.10;;;;;;4939427;28;20455;-85
2022/03/31 07:17:33;;;;;;;2.30;2.10;;;14.50;49.10;;;;;;4957474;28;20533;-84
2022/03/31 07:20:06;;;;;;;6.17;2.00;;;14.60;48.90;;;;;;4957731;28;20538;-85
2022/03/31 07:25:43;;;;;;;1.60;1.50;;;14.50;49.00;;;;;;4956855;28;20447;-84
2022/03/31 07:28:14;;;;;;;4.20;2.00;;;14.40;49.10;;;;;;4957419;28;20475;-84
2022/03/31 07:31:38;;;;;;;3.33;1.60;;;14.40;49.20;;;;;;4958208;28;20523;-85
2022/03/31 07:38:45;;;;;;;2.10;2.00;;;14.40;49.20;;;;;;4819439;29;20487;-86
2022/03/31 07:42:34;;;;;;;2.27;1.70;;;14.40;49.40;;;;;;4829403;29;20451;-85
2022/03/31 07:45:25;;;;;;;2.20;2.00;;;14.40;49.40;;;;;;4853356;29;20451;-85
2022/03/31 07:47:56;;;;;;;5.47;1.90;;;14.40;49.30;;;;;;4880185;29;20472;-85
2022/03/31 07:50:30;;;;;;;2.70;1.87;;;14.40;49.40;;;;;;4915794;29;20460;-85
2022/03/31 07:53:05;;;;;;;1.70;1.60;;;14.40;49.30;;;;;;4916242;29;20451;-84
2022/03/31 07:55:51;;;;;;;3.10;2.23;;;14.40;49.30;;;;;;4918694;29;20457;-84
2022/03/31 07:58:38;;;;;;;2.30;2.10;;;14.40;49.10;;;;;;4924230;29;20476;-84
2022/03/31 08:01:14;;;;;;;1.90;1.80;;;14.40;49.30;;;;;;4929307;29;20453;-84
2022/03/31 08:03:58;;;;;;;2.90;1.80;;;14.40;49.20;;;;;;4926049;29;20476;-84
2022/03/31 08:06:45;;;;;;;2.00;1.87;;;14.40;49.20;;;;;;4920371;29;20476;-84
2022/03/31 08:09:29;;;;;;;2.83;1.97;;;14.40;49.20;;;;;;4917936;29;20535;-84
2022/03/31 08:12:05;;;;;;;2.20;2.00;;;14.40;49.20;;;;;;4919130;29;20459;-85
2022/03/31 08:14:40;;;;;;;2.30;2.10;;;14.40;49.20;;;;;;4932740;29;20446;-84
2022/03/31 08:17:23;;;;;;;2.40;2.20;;;14.40;49.10;;;;;;4959804;28;20482;-84
2022/03/31 08:33:11;;;;;;;2.30;2.20;;;14.30;49.50;;;;;;4870209;28;20470;-85
2022/03/31 08:40:53;;;;;;;2.40;2.20;;;14.30;49.30;;;;;;4820752;29;20463;-84
2022/03/31 08:55:35;;;;;;;2.00;1.90;;;14.30;49.20;;;;;;4778392;29;20483;-87
2022/03/31 08:58:05;;;;;;;2.20;2.10;;;14.30;49.40;;;;;;4854826;29;20464;-85
2022/03/31 09:00:36;;;;;;;2.27;2.07;;;14.30;49.20;;;;;;4888259;29;20529;-84
2022/03/31 09:03:11;;;;;;;2.80;2.60;;;14.30;49.20;;;;;;4973064;28;20521;-86
2022/03/31 10:05:39;;;;;;;2.87;2.60;;;14.60;48.60;;;;;;4722434;30;20480;-84
2022/03/31 10:08:34;;;;;;;2.67;2.50;;;14.70;48.70;;;;;;4766963;30;20494;-83
2022/03/31 10:11:05;;;;;;;2.97;2.77;;;14.70;48.50;;;;;;4767563;30;20460;-83
2022/03/31 10:17:41;;;;;;;2.77;2.57;;;14.80;48.50;;;;;;4920973;29;20504;-84
2022/03/31 10:25:02;;;;;;;2.50;2.30;;;14.70;48.40;;;;;;4925617;28;20483;-83
2022/03/31 10:31:23;;;;;;;2.50;2.40;;;14.70;48.30;;;;;;4930524;28;20469;-84
2022/03/31 10:37:50;;;;;;;2.60;2.40;;;14.70;48.10;;;;;;4947315;29;20462;-84
2022/03/31 10:41:13;;;;;;;;;;;;;;;;;;;;;
2022/03/31 10:47:42;;;;;;;3.03;2.50;;;14.70;48.10;;;;;;4919332;29;20500;-84
2022/03/31 10:50:28;;;;;;;3.13;2.70;;;14.60;48.30;;;;;;4914048;29;20465;-85
2022/03/31 10:53:08;;;;;;;2.50;2.37;;;14.70;48.30;;;;;;4913927;29;20450;-82
2022/03/31 10:55:49;;;;;;;2.93;2.73;;;14.60;48.20;;;;;;4916167;29;20452;-82
2022/03/31 11:09:05;;;;;;;5.87;3.03;;;14.70;48.00;;;;;;4872444;29;20469;-83
2022/03/31 11:15:48;;;;;;;4.87;2.97;;;14.60;48.20;;;;;;4954353;29;20434;-84
2022/03/31 11:18:59;;;;;;;4.13;2.77;;;14.80;47.90;;;;;;4956507;29;20456;-83
2022/03/31 11:22:13;;;;;;;3.80;2.93;;;14.80;47.70;;;;;;4973463;28;20451;-83
2022/03/31 11:33:02;;;;;;;3.60;3.30;;;14.60;49.10;;;;;;4946037;29;20446;-83
2022/03/31 11:42:36;;;;;;;8.00;4.10;;;14.80;48.70;;;;;;4899858;29;20505;-84
2022/03/31 11:53:23;;;;;;;3.50;3.20;;;14.80;47.60;;;;;;4913021;29;20424;-83
2022/03/31 11:56:40;;;;;;;4.73;4.00;;;14.70;48.00;;;;;;4952153;29;20516;-83
2022/03/31 12:00:18;;;;;;;4.07;3.70;;;14.60;48.30;;;;;;4941874;29;20436;-81
2022/03/31 12:11:35;;;;;;;;;;;;;;;;;;;;;
2022/03/31 12:34:22;;;;;;;6.70;4.43;;;15.10;47.60;;;;;;4795042;29;20453;-83
2022/03/31 12:38:17;;;;;;;4.80;4.30;;;15.30;47.10;;;;;;4837536;29;20528;-84
2022/03/31 13:00:24;;;;;;;4.00;3.70;;;16.50;44.70;;;;;;4774448;29;21055;-85
2022/03/31 13:06:31;;;;;;;;;;;;;;;;;;;;;
2022/03/31 13:09:19;;;;;;;4.30;3.90;;;16.90;43.90;;;;;;4915818;28;20468;-84
2022/03/31 13:12:36;;;;;;;5.57;3.90;;;16.90;43.50;;;;;;4956411;28;20450;-83
2022/03/31 13:15:36;;;;;;;4.87;4.40;;;16.80;43.80;;;;;;4969079;29;20502;-84
2022/03/31 13:18:26;;;;;;;4.00;3.67;;;16.90;43.70;;;;;;4968782;28;20530;-84
2022/03/31 13:25:36;;;;;;;4.20;3.80;;;17.00;43.50;;;;;;4971935;28;20443;-84
2022/03/31 13:28:20;;;;;;;4.40;3.97;;;17.40;43.20;;;;;;4985368;23;20509;-84
2022/03/31 13:31:06;;;;;;;3.90;3.60;;;17.60;42.90;;;;;;4971552;28;20449;-86
2022/03/31 13:33:50;;;;;;;3.97;3.67;;;17.80;42.70;;;;;;4972330;29;20450;-86
2022/03/31 13:36:19;;;;;;;3.80;3.50;;;17.90;42.40;;;;;;4969910;28;20455;-86
2022/03/31 13:38:49;;;;;;;4.43;3.47;;;18.20;42.00;;;;;;4974263;28;20449;-85
2022/03/31 13:41:22;;;;;;;3.83;3.53;;;18.20;42.00;;;;;;4974371;28;20438;-85
2022/03/31 13:43:54;;;;;;;4.10;3.60;;;18.30;41.90;;;;;;4975044;28;20423;-85
2022/03/31 13:46:29;;;;;;;3.67;3.37;;;18.70;41.70;;;;;;4975032;28;20534;-85
2022/03/31 13:49:12;;;;;;;3.60;3.33;;;18.70;41.30;;;;;;4971580;28;20439;-85
2022/03/31 13:51:49;;;;;;;3.40;3.10;;;18.90;41.50;;;;;;4975402;28;20463;-86
2022/03/31 13:54:18;;;;;;;3.70;3.40;;;19.10;40.80;;;;;;4971817;28;20483;-84
2022/03/31 13:56:47;;;;;;;3.20;2.97;;;19.20;40.70;;;;;;4970228;28;20441;-84
2022/03/31 14:02:10;;;;;;;3.20;3.00;;;19.70;40.50;;;;;;4972848;28;20909;-85
2022/03/31 14:04:39;;;;;;;3.23;2.80;;;19.80;40.30;;;;;;4963736;28;20474;-85
2022/03/31 14:07:08;;;;;;;3.40;3.10;;;19.90;40.00;;;;;;4972127;28;20443;-84
2022/03/31 14:09:38;;;;;;;4.53;3.07;;;19.90;40.10;;;;;;4982893;28;20455;-84
2022/03/31 14:12:09;;;;;;;2.90;2.70;;;19.90;40.20;;;;;;4983774;28;20431;-83
2022/03/31 14:14:42;;;;;;;3.67;3.00;;;19.90;40.30;;;;;;4976270;28;20430;-84
2022/03/31 14:17:12;;;;;;;4.10;3.60;;;20.10;39.80;;;;;;4981598;28;20485;-85
2022/03/31 14:19:41;;;;;;;5.40;3.10;;;20.20;40.00;;;;;;4979463;28;20431;-85
2022/03/31 14:22:10;;;;;;;3.30;3.00;;;20.30;39.70;;;;;;4978399;28;20446;-85
2022/03/31 14:24:39;;;;;;;3.10;2.90;;;20.30;39.60;;;;;;4979099;28;20443;-85
2022/03/31 14:27:09;;;;;;;3.33;3.00;;;20.10;39.80;;;;;;4977068;28;20470;-85
2022/03/31 14:29:44;;;;;;;3.27;3.07;;;19.90;39.80;;;;;;4975293;28;20477;-85
2022/03/31 14:32:15;;;;;;;2.77;2.57;;;19.80;40.00;;;;;;4972752;28;20446;-84
2022/03/31 14:34:44;;;;;;;3.40;2.90;;;19.70;40.40;;;;;;4976707;28;20442;-85
2022/03/31 14:37:13;;;;;;;2.83;2.63;;;19.70;40.60;;;;;;4973939;28;20463;-85
2022/03/31 14:39:42;;;;;;;3.40;3.10;;;19.50;40.70;;;;;;4976459;28;20487;-85
2022/03/31 14:42:10;;;;;;;2.83;2.63;;;19.20;40.80;;;;;;4968540;28;20492;-85
2022/03/31 14:44:41;;;;;;;3.43;2.40;;;19.10;41.10;;;;;;4964961;29;20478;-85
2022/03/31 14:47:11;;;;;;;3.17;2.97;;;18.90;41.80;;;;;;4975472;28;20467;-84
2022/03/31 14:49:42;;;;;;;5.40;2.67;;;18.60;42.20;;;;;;4978512;28;20427;-83
2022/03/31 14:52:11;;;;;;;3.00;2.70;;;18.50;42.70;;;;;;4975530;28;20450;-84
2022/03/31 14:54:40;;;;;;;3.40;3.10;;;18.40;42.80;;;;;;4980806;28;20459;-84
2022/03/31 14:57:12;;;;;;;3.50;2.70;;;18.20;43.00;;;;;;4973266;28;20447;-85
2022/03/31 14:59:43;;;;;;;3.70;3.10;;;18.10;43.40;;;;;;4956300;28;20443;-83
2022/03/31 15:02:15;;;;;;;3.20;3.00;;;18.10;43.30;;;;;;4968837;28;20433;-83
2022/03/31 15:04:54;;;;;;;2.80;2.60;;;18.00;43.20;;;;;;4972642;28;20446;-84
2022/03/31 15:07:26;;;;;;;2.90;2.70;;;18.10;43.30;;;;;;4967108;28;20477;-84
2022/03/31 15:15:32;;;;;;;3.03;2.83;;;18.00;43.30;;;;;;4905049;29;20440;-85
2022/03/31 15:18:00;;;;;;;3.33;2.57;;;18.00;43.50;;;;;;4942909;29;20494;-84
2022/03/31 15:20:30;;;;;;;3.30;2.50;;;18.00;43.30;;;;;;4945227;29;20540;-85
2022/03/31 15:22:58;;;;;;;7.13;3.20;;;18.00;43.20;;;;;;4963748;28;20481;-84
2022/03/31 15:25:26;;;;;;;2.80;2.60;;;17.90;43.10;;;;;;4962046;28;20582;-84
2022/03/31 15:27:55;;;;;;;5.30;3.00;;;17.90;43.20;;;;;;4963239;28;20466;-84
2022/03/31 15:30:23;;;;;;;3.30;3.00;;;17.90;43.30;;;;;;4964076;28;20451;-84
2022/03/31 15:32:51;;;;;;;2.20;2.10;;;17.80;43.30;;;;;;4963128;28;20471;-84
2022/03/31 15:35:19;;;;;;;2.87;2.60;;;17.80;43.40;;;;;;4947581;28;20538;-85
2022/03/31 15:37:48;;;;;;;3.33;2.70;;;17.80;43.40;;;;;;4942124;29;20510;-84
2022/03/31 15:40:16;;;;;;;4.10;2.70;;;17.80;43.40;;;;;;4943779;29;20483;-84
2022/03/31 15:42:45;;;;;;;2.73;2.43;;;17.80;43.20;;;;;;4942803;29;20506;-84
2022/03/31 15:45:13;;;;;;;2.37;2.20;;;17.80;43.20;;;;;;4946659;29;20468;-84
2022/03/31 15:47:41;;;;;;;2.33;2.23;;;17.70;43.00;;;;;;4943971;29;20563;-84
2022/03/31 15:50:09;;;;;;;2.60;2.40;;;17.70;43.20;;;;;;4963115;29;20439;-84
2022/03/31 15:52:37;;;;;;;2.70;2.50;;;17.60;43.20;;;;;;4963352;28;20479;-84
2022/03/31 15:55:11;;;;;;;2.57;2.37;;;17.60;43.30;;;;;;4964482;28;20458;-84
2022/03/31 15:57:39;;;;;;;3.07;1.93;;;17.50;43.20;;;;;;4970989;28;20491;-84
2022/03/31 16:00:09;;;;;;;2.10;2.00;;;17.40;43.40;;;;;;4938946;29;20436;-84
2022/03/31 16:02:39;;;;;;;2.13;2.03;;;17.40;43.40;;;;;;4937470;29;20475;-85
2022/03/31 16:05:07;;;;;;;2.50;2.17;;;17.40;43.40;;;;;;4949216;28;20522;-85
2022/03/31 16:07:35;;;;;;;3.90;2.50;;;17.40;43.40;;;;;;4955619;28;20506;-85
2022/03/31 16:10:05;;;;;;;4.13;2.37;;;17.30;43.40;;;;;;4956799;28;20451;-84
2022/03/31 16:12:35;;;;;;;2.20;2.10;;;17.30;43.40;;;;;;4957142;28;20970;-84
2022/03/31 16:15:03;;;;;;;2.30;2.20;;;17.20;43.50;;;;;;4957113;28;20486;-84
2022/03/31 16:17:32;;;;;;;2.50;2.40;;;17.20;43.50;;;;;;4955714;28;20467;-84
2022/03/31 16:20:10;;;;;;;2.30;2.20;;;17.10;43.70;;;;;;4959411;28;20462;-83
2022/03/31 16:22:38;;;;;;;2.60;2.50;;;16.90;43.80;;;;;;4956410;28;20444;-83
2022/03/31 16:25:08;;;;;;;2.50;2.40;;;16.90;43.80;;;;;;4953802;28;20527;-83
2022/03/31 16:27:38;;;;;;;2.93;2.57;;;16.90;44.10;;;;;;4966063;28;20475;-83
2022/03/31 16:30:07;;;;;;;1.93;1.83;;;16.90;44.00;;;;;;4939174;29;20456;-85
2022/03/31 16:32:35;;;;;;;2.60;2.40;;;16.90;44.00;;;;;;4938155;29;20479;-82
2022/03/31 16:35:04;;;;;;;2.30;2.10;;;16.80;44.60;;;;;;4938726;29;20479;-83
2022/03/31 16:37:35;;;;;;;2.50;2.30;;;16.80;44.40;;;;;;4941986;29;20468;-86
2022/03/31 16:40:05;;;;;;;2.43;2.23;;;16.80;44.60;;;;;;4959047;29;20486;-86
2022/03/31 16:42:34;;;;;;;2.30;2.20;;;16.70;44.60;;;;;;4959873;28;20455;-85
2022/03/31 16:45:03;;;;;;;2.70;2.30;;;16.70;44.60;;;;;;4958673;28;20522;-83
2022/03/31 16:47:32;;;;;;;3.50;2.60;;;16.50;44.80;;;;;;4959539;28;20493;-83
2022/03/31 16:50:00;;;;;;;2.37;2.17;;;16.50;44.90;;;;;;4956249;28;20459;-82
2022/03/31 16:52:28;;;;;;;2.50;2.10;;;16.50;44.90;;;;;;4958729;28;20820;-82
2022/03/31 16:54:56;;;;;;;2.63;2.40;;;16.40;45.00;;;;;;4959046;28;20478;-83
2022/03/31 16:57:24;;;;;;;3.27;2.43;;;16.30;45.20;;;;;;4957904;28;20471;-84
2022/03/31 16:59:52;;;;;;;3.87;2.37;;;16.20;45.30;;;;;;4965604;28;20528;-84
2022/03/31 17:02:29;;;;;;;2.10;2.00;;;16.20;45.40;;;;;;4977320;28;20447;-85
2022/03/31 17:04:58;;;;;;;4.03;2.10;;;16.20;45.30;;;;;;4960973;28;20450;-84
2022/03/31 17:07:26;;;;;;;2.40;1.90;;;16.20;45.50;;;;;;4972951;28;20466;-84
2022/03/31 17:09:56;;;;;;;2.60;2.20;;;16.20;45.40;;;;;;4978674;28;20446;-85
2022/03/31 17:13:01;;;;;;;2.20;2.00;;;16.10;45.40;;;;;;4980023;28;20415;-85
2022/03/31 17:15:38;;;;;;;8.23;2.00;;;16.00;45.60;;;;;;4978127;28;20443;-84
2022/03/31 17:18:12;;;;;;;2.90;2.33;;;16.00;45.50;;;;;;4974589;28;20478;-83
2022/03/31 17:20:47;;;;;;;2.10;2.00;;;15.90;45.60;;;;;;4979317;28;20427;-83
2022/03/31 17:23:22;;;;;;;2.30;2.10;;;15.90;45.60;;;;;;4979005;28;20435;-84
2022/03/31 17:25:54;;;;;;;2.70;2.47;;;15.90;45.60;;;;;;4979267;28;20477;-84
2022/03/31 17:28:36;;;;;;;2.40;2.20;;;15.90;45.80;;;;;;4977758;28;20463;-84
2022/03/31 17:31:19;;;;;;;2.33;2.10;;;15.80;45.70;;;;;;4978044;28;20437;-84
2022/03/31 17:33:49;;;;;;;1.93;1.83;;;15.80;45.70;;;;;;4966768;28;20654;-84
2022/03/31 17:36:17;;;;;;;7.50;2.13;;;15.90;45.70;;;;;;4964806;28;20455;-84
2022/03/31 17:38:45;;;;;;;2.50;2.03;;;15.80;45.60;;;;;;4961562;28;20478;-84
2022/03/31 17:41:13;;;;;;;1.90;1.80;;;15.70;45.70;;;;;;4960424;28;20518;-83
2022/03/31 17:43:44;;;;;;;3.13;2.10;;;15.70;45.70;;;;;;4960209;29;20439;-83
2022/03/31 17:46:13;;;;;;;4.07;1.90;;;15.70;45.70;;;;;;4962913;28;20454;-84
2022/03/31 17:48:41;;;;;;;2.10;2.00;;;15.70;46.50;;;;;;4963267;28;20475;-85
2022/03/31 17:51:11;;;;;;;2.00;1.90;;;15.70;45.80;;;;;;4964435;28;20440;-84
2022/03/31 17:53:39;;;;;;;2.50;2.20;;;15.70;45.80;;;;;;4963228;28;20513;-84
2022/03/31 17:56:09;;;;;;;2.90;2.20;;;15.60;45.90;;;;;;4962245;28;20447;-84
2022/03/31 17:58:37;;;;;;;2.80;2.20;;;15.50;45.80;;;;;;4962374;28;20462;-84
2022/03/31 18:01:05;;;;;;;2.50;2.20;;;15.40;45.90;;;;;;4967055;28;20463;-84
2022/03/31 18:03:34;;;;;;;2.00;1.90;;;15.40;45.90;;;;;;4968819;28;20435;-84
2022/03/31 18:06:04;;;;;;;3.83;2.10;;;15.40;46.00;;;;;;4966812;28;20766;-84
2022/03/31 18:08:33;;;;;;;2.00;1.90;;;15.40;46.00;;;;;;4962048;28;20501;-84
2022/03/31 18:11:04;;;;;;;1.70;1.60;;;15.40;46.20;;;;;;4961269;28;20450;-84
2022/03/31 18:13:32;;;;;;;3.63;1.90;;;15.40;46.10;;;;;;4970290;28;20447;-84
2022/03/31 18:16:01;;;;;;;1.97;1.87;;;15.40;46.10;;;;;;4959247;28;21068;-84
2022/03/31 18:18:31;;;;;;;1.97;1.83;;;15.40;46.20;;;;;;4971258;28;20477;-85
2022/03/31 18:21:01;;;;;;;2.60;1.73;;;15.30;46.20;;;;;;4972440;28;20447;-85
2022/03/31 18:23:29;;;;;;;2.00;1.90;;;15.30;46.20;;;;;;4995388;28;20445;-85
2022/03/31 18:25:59;;;;;;;1.67;1.57;;;15.30;46.30;;;;;;4996166;28;20442;-85
2022/03/31 18:28:27;;;;;;;2.80;2.07;;;15.20;46.40;;;;;;4966939;28;20561;-85
2022/03/31 18:34:00;;;;;;;6.53;1.70;;;15.10;46.30;;;;;;4951856;29;20474;-86
2022/03/31 18:36:35;;;;;;;2.00;1.80;;;15.10;46.50;;;;;;4963469;28;20471;-86
2022/03/31 18:39:09;;;;;;;1.80;1.70;;;15.00;46.60;;;;;;4970369;28;20435;-84
2022/03/31 18:41:44;;;;;;;2.60;1.80;;;15.00;46.50;;;;;;4966863;28;20451;-84
2022/03/31 18:44:15;;;;;;;1.80;1.70;;;15.00;46.50;;;;;;4964654;28;20454;-84
2022/03/31 18:46:43;;;;;;;4.33;1.83;;;15.00;46.50;;;;;;4972007;28;20490;-84
2022/03/31 18:49:13;;;;;;;1.60;1.50;;;15.00;46.40;;;;;;4969749;28;20447;-86
2022/03/31 18:52:21;;;;;;;1.73;1.63;;;15.00;46.20;;;;;;4970926;28;20518;-86
2022/03/31 18:55:27;;;;;;;1.60;1.50;;;14.90;46.40;;;;;;4897036;29;20435;-84
2022/03/31 18:57:59;;;;;;;2.63;1.80;;;14.90;46.40;;;;;;4892558;29;20455;-84
2022/03/31 19:00:35;;;;;;;2.50;1.80;;;14.90;46.30;;;;;;4902434;29;20453;-84
2022/03/31 19:03:15;;;;;;;1.43;1.33;;;14.90;46.20;;;;;;4909826;29;20458;-87
2022/03/31 19:06:57;;;;;;;1.67;1.50;;;14.90;46.20;;;;;;4919477;29;20469;-85
2022/03/31 19:08:53;;;;;;;1.77;1.67;;;14.80;46.30;;;;;;4915851;29;20481;-85
2022/03/31 19:11:24;;;;;;;2.03;1.70;;;14.80;46.10;;;;;;4923960;29;20985;-84
2022/03/31 19:16:44;;;;;;;1.63;1.53;;;14.80;46.20;;;;;;4917344;29;20548;-85
2022/03/31 19:19:17;;;;;;;3.50;2.00;;;14.80;46.20;;;;;;4918798;29;20493;-85
2022/03/31 19:21:53;;;;;;;2.03;1.80;;;14.70;46.10;;;;;;4921867;29;20544;-86
2022/03/31 19:24:30;;;;;;;5.60;1.63;;;14.70;46.30;;;;;;4913290;29;20553;-85
2022/03/31 19:27:02;;;;;;;1.70;1.60;;;14.60;46.30;;;;;;4969889;28;20513;-86
2022/03/31 19:29:39;;;;;;;1.80;1.70;;;14.70;46.40;;;;;;4977616;28;20474;-85
2022/03/31 19:32:12;;;;;;;1.73;1.60;;;14.70;46.30;;;;;;4962969;28;20458;-85
2022/03/31 19:34:43;;;;;;;2.63;1.53;;;14.70;46.30;;;;;;4971392;28;20478;-84
2022/03/31 19:37:12;;;;;;;1.50;1.40;;;14.60;46.30;;;;;;4970066;28;20471;-83
2022/03/31 19:39:53;;;;;;;5.00;1.47;;;14.60;46.30;;;;;;4970819;28;20454;-83
2022/03/31 19:42:22;;;;;;;1.60;1.50;;;14.60;46.20;;;;;;4965203;28;20471;-85
2022/03/31 19:44:52;;;;;;;2.10;1.77;;;14.60;46.30;;;;;;4963003;28;20447;-86
2022/03/31 19:47:24;;;;;;;1.87;1.40;;;14.60;46.30;;;;;;4962161;28;20519;-85
2022/03/31 19:49:52;;;;;;;1.63;1.53;;;14.60;46.40;;;;;;4958009;28;20483;-83
2022/03/31 19:52:20;;;;;;;1.57;1.47;;;14.50;46.30;;;;;;4967358;28;20434;-86
2022/03/31 19:54:48;;;;;;;1.60;1.50;;;14.60;46.50;;;;;;4976603;28;20473;-85
2022/03/31 19:57:16;;;;;;;2.10;1.43;;;14.50;46.30;;;;;;4972202;28;20470;-85
2022/03/31 19:59:47;;;;;;;1.80;1.60;;;14.50;46.30;;;;;;4973210;28;20447;-84
2022/03/31 20:02:17;;;;;;;1.67;1.40;;;14.50;46.20;;;;;;4973276;28;20475;-83
2022/03/31 20:04:45;;;;;;;1.30;1.20;;;14.50;46.20;;;;;;4973614;28;20734;-85
2022/03/31 20:07:13;;;;;;;1.60;1.50;;;14.40;46.30;;;;;;4973549;28;20494;-84
2022/03/31 20:09:41;;;;;;;1.33;1.23;;;14.50;46.30;;;;;;4980926;28;20522;-83
2022/03/31 20:12:13;;;;;;;1.83;1.40;;;14.40;46.30;;;;;;4963046;28;20452;-83
2022/03/31 20:14:41;;;;;;;1.47;1.37;;;14.40;46.20;;;;;;4963358;28;20471;-83
2022/03/31 20:17:09;;;;;;;5.03;1.40;;;14.40;46.10;;;;;;4963405;28;20479;-83
2022/03/31 20:19:40;;;;;;;1.60;1.50;;;14.30;46.20;;;;;;4956667;28;20456;-82
2022/03/31 20:22:10;;;;;;;1.47;1.37;;;14.30;46.30;;;;;;4952863;28;20448;-85
2022/03/31 20:24:38;;;;;;;3.90;1.40;;;14.40;46.50;;;;;;4943168;29;20452;-83
2022/03/31 20:27:09;;;;;;;1.30;1.20;;;14.40;46.50;;;;;;4952233;28;20474;-84
2022/03/31 20:29:40;;;;;;;1.40;1.30;;;14.30;46.50;;;;;;4965891;28;20572;-84
2022/03/31 20:32:10;;;;;;;5.70;1.50;;;14.40;46.40;;;;;;4966821;28;20459;-83
2022/03/31 20:34:40;;;;;;;3.33;1.40;;;14.30;46.40;;;;;;4967727;28;20446;-81
2022/03/31 20:37:11;;;;;;;2.07;1.67;;;14.40;46.60;;;;;;4964366;28;20498;-85
2022/03/31 20:39:40;;;;;;;1.30;1.20;;;14.30;46.50;;;;;;4966252;28;20471;-84
2022/03/31 20:42:09;;;;;;;2.40;1.20;;;14.30;46.50;;;;;;4966607;28;20950;-85
2022/03/31 20:44:37;;;;;;;3.90;1.50;;;14.30;46.50;;;;;;4962971;28;20458;-83
2022/03/31 20:47:05;;;;;;;1.83;1.27;;;14.20;46.60;;;;;;4963751;28;20455;-84
2022/03/31 20:49:34;;;;;;;1.47;1.23;;;14.20;46.70;;;;;;4968725;28;20471;-83
2022/03/31 20:52:06;;;;;;;1.30;1.20;;;14.20;46.80;;;;;;4964273;28;20458;-83
2022/03/31 20:54:34;;;;;;;2.03;1.67;;;14.20;46.70;;;;;;4966227;28;20451;-84
2022/03/31 20:57:02;;;;;;;2.03;1.50;;;14.20;46.70;;;;;;4978742;28;20494;-87
2022/03/31 20:59:34;;;;;;;1.40;1.30;;;14.10;46.70;;;;;;4970818;28;20453;-83
2022/03/31 21:02:02;;;;;;;1.43;1.33;;;14.10;46.80;;;;;;4972208;28;20474;-81
2022/03/31 21:04:30;;;;;;;1.73;1.30;;;14.10;46.90;;;;;;4980837;28;20586;-85
2022/03/31 21:06:58;;;;;;;2.00;1.20;;;14.10;46.90;;;;;;4962105;28;20491;-84
2022/03/31 21:09:32;;;;;;;1.97;1.50;;;14.00;46.90;;;;;;4961835;28;20504;-84
2022/03/31 21:12:02;;;;;;;1.60;1.33;;;14.10;47.00;;;;;;4960929;28;20452;-86
2022/03/31 21:14:37;;;;;;;2.70;1.20;;;14.00;46.80;;;;;;4955647;28;20494;-83
2022/03/31 21:17:05;;;;;;;2.63;1.20;;;14.10;47.00;;;;;;4960281;28;20527;-84
2022/03/31 21:19:37;;;;;;;2.17;1.40;;;14.10;47.00;;;;;;4959346;28;20443;-85
2022/03/31 21:22:07;;;;;;;1.67;1.50;;;14.10;46.90;;;;;;4963417;28;20447;-86
2022/03/31 21:24:49;;;;;;;1.23;1.13;;;14.00;46.90;;;;;;4959897;28;20455;-85
2022/03/31 21:27:17;;;;;;;6.67;1.30;;;14.00;47.00;;;;;;4962408;28;20467;-85
2022/03/31 21:29:45;;;;;;;4.80;1.50;;;14.00;46.90;;;;;;4957320;28;20475;-85